createdAt,value
2023-02-09T00:00:49.247Z,71.97
2023-02-09T00:01:49.314Z,71.23
2023-02-09T00:02:49.255Z,70.27
2023-02-09T00:03:49.299Z,67.67
2023-02-09T00:04:49.260Z,66.37
2023-02-09T00:05:49.252Z,66.43
2023-02-09T00:06:49.253Z,67.09
2023-02-09T00:07:49.280Z,68.36
2023-02-09T00:08:49.262Z,69.14
2023-02-09T00:09:49.263Z,70.62
2023-02-09T00:10:49.266Z,70.57
2023-02-09T00:11:49.329Z,71.93
2023-02-09T00:12:49.269Z,72.65
2023-02-09T00:13:49.274Z,72.39
2023-02-09T00:14:49.264Z,72.64
2023-02-09T00:15:49.273Z,73.57
2023-02-09T00:16:49.402Z,74.04
2023-02-09T00:17:49.276Z,73.99
2023-02-09T00:18:49.272Z,73.21
2023-02-09T00:19:49.300Z,73.47
2023-02-09T00:20:49.283Z,73.18
2023-02-09T00:21:49.288Z,72.69
2023-02-09T00:22:49.276Z,72.54
2023-02-09T00:23:49.282Z,70.42
2023-02-09T00:24:49.281Z,68.91
2023-02-09T00:25:49.280Z,66.18
2023-02-09T00:26:49.291Z,62.81
2023-02-09T00:27:49.295Z,60.54
2023-02-09T00:28:49.296Z,55.96
2023-02-09T00:29:49.293Z,53.76
2023-02-09T00:30:49.348Z,50.7
2023-02-09T00:31:49.313Z,47.82
2023-02-09T00:32:49.299Z,45.53
2023-02-09T00:33:49.307Z,44.06
2023-02-09T00:34:49.302Z,41.22
2023-02-09T00:35:49.321Z,38.36
2023-02-09T00:36:49.312Z,36.45
2023-02-09T00:37:49.308Z,33.84
2023-02-09T00:38:49.309Z,31.78
2023-02-09T00:39:49.302Z,29.85
2023-02-09T00:40:49.306Z,27.72
2023-02-09T00:41:49.324Z,26.46
2023-02-09T00:42:49.313Z,24.61
2023-02-09T00:43:52.080Z,23.59
2023-02-09T00:44:49.317Z,21.97
2023-02-09T00:45:49.374Z,21.47
2023-02-09T00:46:49.366Z,20.44
2023-02-09T00:47:49.321Z,19.08
2023-02-09T00:48:49.314Z,18.27
2023-02-09T00:49:49.317Z,18.01
2023-02-09T00:50:49.325Z,17.57
2023-02-09T00:51:49.352Z,17.83
2023-02-09T00:52:49.323Z,17.07
2023-02-09T00:53:49.323Z,16.36
2023-02-09T00:54:52.086Z,16.41
2023-02-09T00:55:49.328Z,14.66
2023-02-09T00:56:49.331Z,12.59
2023-02-09T00:57:49.336Z,9.97
2023-02-09T00:58:49.330Z,9
2023-02-09T00:59:49.338Z,6.9
2023-02-09T01:00:49.425Z,6.37
2023-02-09T01:01:49.345Z,5.56
2023-02-09T01:02:49.339Z,4.79
2023-02-09T01:03:49.357Z,2.83
2023-02-09T01:04:49.383Z,0.99
2023-02-09T01:05:52.371Z,-0.78
2023-02-09T01:06:49.349Z,-2.79
2023-02-09T01:07:49.377Z,-5.19
2023-02-09T01:08:49.344Z,-7.27
2023-02-09T01:09:49.352Z,-9.93
2023-02-09T01:10:49.358Z,-10.04
2023-02-09T01:11:49.354Z,-11.56
2023-02-09T01:12:49.358Z,-14.46
2023-02-09T01:13:49.360Z,-16.57
2023-02-09T01:14:49.355Z,-18.93
2023-02-09T01:15:49.369Z,-20.18
2023-02-09T01:16:52.187Z,-22
2023-02-09T01:17:49.356Z,-23.47
2023-02-09T01:18:49.370Z,-26.1
2023-02-09T01:19:49.365Z,-27.97
2023-02-09T01:20:49.365Z,-29.49
2023-02-09T01:21:49.391Z,-29.78
2023-02-09T01:22:49.390Z,-29.17
2023-02-09T01:23:49.396Z,-28.92
2023-02-09T01:24:49.367Z,-28.58
2023-02-09T01:25:49.369Z,-27.8
2023-02-09T01:26:49.377Z,-26.78
2023-02-09T01:27:53.282Z,-25.41
2023-02-09T01:28:49.369Z,-25.21
2023-02-09T01:29:49.370Z,-24.77
2023-02-09T01:30:49.653Z,-24.49
2023-02-09T01:31:49.515Z,-23.9
2023-02-09T01:32:49.382Z,-25.57
2023-02-09T01:33:49.384Z,-25.29
2023-02-09T01:34:49.388Z,-25.39
2023-02-09T01:35:49.385Z,-26.76
2023-02-09T01:36:49.389Z,-27.84
2023-02-09T01:37:49.393Z,-29.66
2023-02-09T01:38:49.404Z,-30.15
2023-02-09T01:39:49.423Z,-30.73
2023-02-09T01:40:49.392Z,-31.44
2023-02-09T01:41:49.402Z,-32.97
2023-02-09T01:42:49.404Z,-32.63
2023-02-09T01:43:49.395Z,-33.59
2023-02-09T01:44:49.400Z,-34.13
2023-02-09T01:45:49.472Z,-35.21
2023-02-09T01:46:49.405Z,-36.07
2023-02-09T01:47:49.404Z,-36.49
2023-02-09T01:48:49.416Z,-36.26
2023-02-09T01:49:49.410Z,-38.44
2023-02-09T01:50:49.414Z,-39.2
2023-02-09T01:51:49.411Z,-40.02
2023-02-09T01:52:49.412Z,-40.82
2023-02-09T01:53:49.425Z,-42.93
2023-02-09T01:54:49.421Z,-43.91
2023-02-09T01:55:49.446Z,-45.5
2023-02-09T01:56:49.428Z,-46.63
2023-02-09T01:57:49.424Z,-46.62
2023-02-09T01:58:49.427Z,-47.7
2023-02-09T01:59:49.438Z,-47.39
2023-02-09T02:00:49.432Z,-49.2
2023-02-09T02:01:49.460Z,-49.01
2023-02-09T02:02:49.461Z,-49.3
2023-02-09T02:03:49.435Z,-50.73
2023-02-09T02:04:49.450Z,-51.48
2023-02-09T02:05:49.447Z,-52.89
2023-02-09T02:06:49.437Z,-52.55
2023-02-09T02:07:49.435Z,-52.8
2023-02-09T02:08:49.439Z,-54.11
2023-02-09T02:09:49.444Z,-54.11
2023-02-09T02:10:49.442Z,-54.43
2023-02-09T02:11:49.474Z,-54.12
2023-02-09T02:12:49.447Z,-54.4
2023-02-09T02:13:49.449Z,-54.45
2023-02-09T02:14:49.442Z,-55.17
2023-02-09T02:15:49.478Z,-55.67
2023-02-09T02:16:49.448Z,-55.97
2023-02-09T02:17:49.446Z,-57.77
2023-02-09T02:18:49.455Z,-58.55
2023-02-09T02:19:49.457Z,-59.38
2023-02-09T02:20:49.455Z,-60.68
2023-02-09T02:21:49.450Z,-62.77
2023-02-09T02:22:49.453Z,-64.34
2023-02-09T02:23:49.469Z,-67.27
2023-02-09T02:24:49.456Z,-69.4
2023-02-09T02:25:49.465Z,-71.55
2023-02-09T02:26:49.465Z,-73.67
2023-02-09T02:27:49.487Z,-76.15
2023-02-09T02:28:49.472Z,-78.45
2023-02-09T02:29:49.469Z,-79.42
2023-02-09T02:30:49.767Z,-80.83
2023-02-09T02:31:49.503Z,-79.46
2023-02-09T02:32:49.480Z,-79.49
2023-02-09T02:33:49.473Z,-81.4
2023-02-09T02:34:49.474Z,-81.89
2023-02-09T02:35:49.472Z,-82.74
2023-02-09T02:36:49.475Z,-83.57
2023-02-09T02:37:49.506Z,-85.04
2023-02-09T02:38:52.315Z,-88.25
2023-02-09T02:39:49.490Z,-89.74
2023-02-09T02:40:49.488Z,-90.16
2023-02-09T02:41:49.490Z,-90.43
2023-02-09T02:42:49.496Z,-92.45
2023-02-09T02:43:49.516Z,-93.16
2023-02-09T02:44:49.488Z,-95.36
2023-02-09T02:45:49.500Z,-97.58
2023-02-09T02:46:49.498Z,-98.38
2023-02-09T02:47:49.496Z,-99.69
2023-02-09T02:48:49.516Z,-99.36
2023-02-09T02:49:49.516Z,-101.5
2023-02-09T02:50:49.634Z,-101.55
2023-02-09T02:51:49.505Z,-102.64
2023-02-09T02:52:49.529Z,-104.17
2023-02-09T02:53:49.531Z,-106.68
2023-02-09T02:54:49.526Z,-108.92
2023-02-09T02:55:49.524Z,-112.38
2023-02-09T02:56:49.533Z,-114.25
2023-02-09T02:57:49.529Z,-116.65
2023-02-09T02:58:49.543Z,-118.69
2023-02-09T02:59:49.605Z,-120.96
2023-02-09T03:00:49.545Z,-122.01
2023-02-09T03:01:49.646Z,-122.58
2023-02-09T03:02:49.529Z,-121.68
2023-02-09T03:03:49.529Z,-121.36
2023-02-09T03:04:49.546Z,-122.23
2023-02-09T03:05:49.539Z,-121.1
2023-02-09T03:06:49.529Z,-121.63
2023-02-09T03:07:49.530Z,-120.99
2023-02-09T03:08:49.575Z,-121.27
2023-02-09T03:09:49.542Z,-121.49
2023-02-09T03:10:49.586Z,-120.9
2023-02-09T03:11:49.556Z,-120.97
2023-02-09T03:12:49.548Z,-120.64
2023-02-09T03:13:49.557Z,-120.06
2023-02-09T03:14:49.539Z,-119.21
2023-02-09T03:15:49.611Z,-119.85
2023-02-09T03:16:49.577Z,-117.94
2023-02-09T03:17:49.548Z,-117.46
2023-02-09T03:18:49.550Z,-116.45
2023-02-09T03:19:49.545Z,-116.15
2023-02-09T03:20:49.554Z,-115.66
2023-02-09T03:21:52.678Z,-117.81
2023-02-09T03:22:49.551Z,-118.96
2023-02-09T03:23:49.560Z,-122.68
2023-02-09T03:24:49.556Z,-125.4
2023-02-09T03:25:49.553Z,-128.75
2023-02-09T03:26:49.555Z,-130.77
2023-02-09T03:27:49.680Z,-133.2
2023-02-09T03:28:49.572Z,-134.23
2023-02-09T03:29:49.568Z,-134.66
2023-02-09T03:30:49.602Z,-135.58
2023-02-09T03:31:49.634Z,-135.4
2023-02-09T03:32:52.584Z,-136.16
2023-02-09T03:33:49.589Z,-137.49
2023-02-09T03:34:49.567Z,-139.94
2023-02-09T03:35:49.569Z,-142.14
2023-02-09T03:36:49.569Z,-145.68
2023-02-09T03:37:49.574Z,-147.61
2023-02-09T03:38:49.601Z,-148.91
2023-02-09T03:39:49.574Z,-150.52
2023-02-09T03:40:49.586Z,-150.74
2023-02-09T03:41:49.586Z,-151.56
2023-02-09T03:42:49.592Z,-152.12
2023-02-09T03:43:51.333Z,-150.71
2023-02-09T03:44:49.581Z,-151.94
2023-02-09T03:45:49.591Z,-150.87
2023-02-09T03:46:49.670Z,-152.93
2023-02-09T03:47:49.612Z,-155.16
2023-02-09T03:48:49.595Z,-156
2023-02-09T03:49:49.604Z,-158.74
2023-02-09T03:50:49.600Z,-160.68
2023-02-09T03:51:49.603Z,-163.03
2023-02-09T03:52:49.606Z,-165.52
2023-02-09T03:53:49.599Z,-166.33
2023-02-09T03:54:52.765Z,-166.35
2023-02-09T03:55:49.604Z,-167.5
2023-02-09T03:56:49.598Z,-167.5
2023-02-09T03:57:49.619Z,-168.01
2023-02-09T03:58:49.601Z,-168.48
2023-02-09T03:59:49.603Z,-169.69
2023-02-09T04:00:49.660Z,-171
2023-02-09T04:01:49.612Z,-170.73
2023-02-09T04:02:49.624Z,-171.8
2023-02-09T04:03:49.640Z,-172.4
2023-02-09T04:04:49.608Z,-173.56
2023-02-09T04:05:52.724Z,-174.36
2023-02-09T04:06:49.625Z,-175.08
2023-02-09T04:07:49.617Z,-175.67
2023-02-09T04:08:49.614Z,-176.79
2023-02-09T04:09:49.616Z,-176.02
2023-02-09T04:10:49.622Z,-177.16
2023-02-09T04:11:49.625Z,-178.5
2023-02-09T04:12:49.625Z,-178.22
2023-02-09T04:13:49.645Z,-180.45
2023-02-09T04:14:49.630Z,-180.7
2023-02-09T04:15:49.636Z,-183.97
2023-02-09T04:16:49.637Z,-184.44
2023-02-09T04:17:50.853Z,-185.63
2023-02-09T04:18:49.630Z,-186.89
2023-02-09T04:19:49.662Z,-186.63
2023-02-09T04:20:49.636Z,-186.67
2023-02-09T04:21:49.639Z,-187.62
2023-02-09T04:22:49.641Z,-187.67
2023-02-09T04:23:49.650Z,-189.27
2023-02-09T04:24:49.639Z,-188.42
2023-02-09T04:25:49.646Z,-188.04
2023-02-09T04:26:49.648Z,-188.66
2023-02-09T04:27:49.663Z,-188.9
2023-02-09T04:28:49.652Z,-188.85
2023-02-09T04:29:49.651Z,-187.47
2023-02-09T04:30:49.686Z,-188
2023-02-09T04:31:49.761Z,-187.98
2023-02-09T04:32:49.659Z,-186.66
2023-02-09T04:33:49.662Z,-186.41
2023-02-09T04:34:49.658Z,-186.89
2023-02-09T04:35:49.680Z,-188.06
2023-02-09T04:36:49.665Z,-189.56
2023-02-09T04:37:49.663Z,-190.38
2023-02-09T04:38:49.672Z,-191.46
2023-02-09T04:39:49.790Z,-192.56
2023-02-09T04:40:49.665Z,-193.69
2023-02-09T04:41:49.675Z,-194.24
2023-02-09T04:42:49.679Z,-194.7
2023-02-09T04:43:49.678Z,-195.41
2023-02-09T04:44:49.683Z,-197.66
2023-02-09T04:45:49.742Z,-198.75
2023-02-09T04:46:49.741Z,-199.58
2023-02-09T04:47:49.681Z,-200.43
2023-02-09T04:48:49.680Z,-201.83
2023-02-09T04:49:49.689Z,-201.49
2023-02-09T04:50:49.700Z,-203.43
2023-02-09T04:51:49.716Z,-202.27
2023-02-09T04:52:49.692Z,-203.18
2023-02-09T04:53:49.691Z,-202.81
2023-02-09T04:54:49.696Z,-202.61
2023-02-09T04:55:49.699Z,-203.44
2023-02-09T04:56:49.698Z,-205.95
2023-02-09T04:57:49.699Z,-206.41
2023-02-09T04:58:49.701Z,-207.82
2023-02-09T04:59:49.705Z,-210.06
2023-02-09T05:00:49.740Z,-212.05
2023-02-09T05:01:49.706Z,-213.71
2023-02-09T05:02:49.709Z,-215.04
2023-02-09T05:03:49.788Z,-217.33
2023-02-09T05:04:49.745Z,-220.74
2023-02-09T05:05:52.725Z,-221.52
2023-02-09T05:06:49.722Z,-223.47
2023-02-09T05:07:49.731Z,-225.07
2023-02-09T05:08:49.708Z,-226.54
2023-02-09T05:09:49.738Z,-226.76
2023-02-09T05:10:49.727Z,-227.93
2023-02-09T05:11:49.725Z,-227.89
2023-02-09T05:12:49.727Z,-228.75
2023-02-09T05:13:49.722Z,-228.83
2023-02-09T05:14:49.756Z,-229.11
2023-02-09T05:15:49.721Z,-228.81
2023-02-09T05:16:50.437Z,-227.31
2023-02-09T05:17:49.724Z,-225.98
2023-02-09T05:18:49.732Z,-225.41
2023-02-09T05:19:49.752Z,-223.48
2023-02-09T05:20:49.787Z,-222.61
2023-02-09T05:21:49.729Z,-222.21
2023-02-09T05:22:50.231Z,-221.1
2023-02-09T05:23:49.765Z,-221.91
2023-02-09T05:24:49.761Z,-221.95
2023-02-09T05:25:49.752Z,-222.14
2023-02-09T05:26:49.739Z,-223.39
2023-02-09T05:27:49.774Z,-223.47
2023-02-09T05:28:49.748Z,-225.44
2023-02-09T05:29:49.808Z,-224.56
2023-02-09T05:30:49.786Z,-225.19
2023-02-09T05:31:49.778Z,-226.55
2023-02-09T05:32:49.752Z,-226.57
2023-02-09T05:33:49.755Z,-227.12
2023-02-09T05:34:49.779Z,-227.55
2023-02-09T05:35:49.761Z,-228.17
2023-02-09T05:36:49.806Z,-229.94
2023-02-09T05:37:49.762Z,-229.76
2023-02-09T05:38:49.758Z,-230.07
2023-02-09T05:39:49.822Z,-232.53
2023-02-09T05:40:50.060Z,-234.89
2023-02-09T05:41:49.766Z,-235.43
2023-02-09T05:42:49.789Z,-236.67
2023-02-09T05:43:49.780Z,-236.65
2023-02-09T05:44:49.792Z,-235.87
2023-02-09T05:45:49.843Z,-235.88
2023-02-09T05:46:49.778Z,-235.35
2023-02-09T05:47:49.778Z,-234.79
2023-02-09T05:48:52.579Z,-235.07
2023-02-09T05:49:49.822Z,-232.52
2023-02-09T05:50:49.777Z,-231.37
2023-02-09T05:51:52.773Z,-230.58
2023-02-09T05:52:49.789Z,-230.24
2023-02-09T05:53:49.787Z,-229.42
2023-02-09T05:54:49.816Z,-228.87
2023-02-09T05:55:49.814Z,-227.66
2023-02-09T05:56:49.796Z,-228.81
2023-02-09T05:57:49.782Z,-229.62
2023-02-09T05:58:49.826Z,-230.76
2023-02-09T05:59:51.392Z,-231.77
2023-02-09T06:00:49.788Z,-233.95
2023-02-09T06:01:49.812Z,-234.82
2023-02-09T06:02:49.796Z,-236.77
2023-02-09T06:03:49.839Z,-239.3
2023-02-09T06:04:49.839Z,-240.39
2023-02-09T06:05:49.804Z,-241.93
2023-02-09T06:06:49.808Z,-243.54
2023-02-09T06:07:49.834Z,-243.54
2023-02-09T06:08:49.822Z,-244.93
2023-02-09T06:09:49.803Z,-246.15
2023-02-09T06:10:52.663Z,-246.4
2023-02-09T06:11:49.840Z,-245.98
2023-02-09T06:12:49.813Z,-245.48
2023-02-09T06:13:49.808Z,-243.79
2023-02-09T06:14:49.811Z,-243.59
2023-02-09T06:15:49.847Z,-241.72
2023-02-09T06:16:49.807Z,-240.32
2023-02-09T06:17:49.816Z,-238.96
2023-02-09T06:18:49.822Z,-236.77
2023-02-09T06:19:49.821Z,-235.02
2023-02-09T06:20:49.821Z,-233.37
2023-02-09T06:21:52.824Z,-231.4
2023-02-09T06:22:49.858Z,-231.72
2023-02-09T06:23:49.826Z,-231.9
2023-02-09T06:24:49.820Z,-231.32
2023-02-09T06:25:49.826Z,-231.89
2023-02-09T06:26:49.838Z,-231.68
2023-02-09T06:27:49.986Z,-231.34
2023-02-09T06:28:49.831Z,-231.71
2023-02-09T06:29:49.832Z,-231.86
2023-02-09T06:30:50.231Z,-231.55
2023-02-09T06:31:49.949Z,-232.43
2023-02-09T06:32:52.859Z,-232.98
2023-02-09T06:33:49.842Z,-234.12
2023-02-09T06:34:49.853Z,-234.1
2023-02-09T06:35:52.067Z,-234.32
2023-02-09T06:36:49.916Z,-233.71
2023-02-09T06:37:49.850Z,-234.04
2023-02-09T06:38:49.842Z,-233.46
2023-02-09T06:39:49.865Z,-232.86
2023-02-09T06:40:49.852Z,-231.12
2023-02-09T06:41:49.859Z,-229.74
2023-02-09T06:42:49.858Z,-227.25
2023-02-09T06:43:49.883Z,-226.41
2023-02-09T06:44:49.859Z,-223.93
2023-02-09T06:45:49.965Z,-222.23
2023-02-09T06:46:49.862Z,-219.75
2023-02-09T06:47:49.860Z,-217.53
2023-02-09T06:48:49.870Z,-216.68
2023-02-09T06:49:49.865Z,-214.33
2023-02-09T06:50:49.875Z,-214.67
2023-02-09T06:51:49.871Z,-213.61
2023-02-09T06:52:49.869Z,-213.78
2023-02-09T06:53:49.884Z,-213.34
2023-02-09T06:54:49.877Z,-212.18
2023-02-09T06:55:49.890Z,-211.84
2023-02-09T06:56:49.877Z,-211.94
2023-02-09T06:57:49.874Z,-211.53
2023-02-09T06:58:49.891Z,-210.16
2023-02-09T06:59:49.906Z,-210.15
2023-02-09T07:00:49.886Z,-209.3
2023-02-09T07:01:49.994Z,-207.61
2023-02-09T07:02:49.919Z,-206.49
2023-02-09T07:03:49.881Z,-205.86
2023-02-09T07:04:49.884Z,-203.42
2023-02-09T07:05:49.896Z,-201.5
2023-02-09T07:06:49.892Z,-197.63
2023-02-09T07:07:49.889Z,-193.81
2023-02-09T07:08:49.892Z,-185.85
2023-02-09T07:09:49.898Z,-172.63
2023-02-09T07:10:49.899Z,-160.09
2023-02-09T07:11:49.894Z,-147.63
2023-02-09T07:12:49.902Z,-135.21
2023-02-09T07:13:49.908Z,-122.55
2023-02-09T07:14:49.906Z,-107.78
2023-02-09T07:15:49.984Z,-90.92
2023-02-09T07:16:49.909Z,-73.08
2023-02-09T07:17:49.903Z,-54.16
2023-02-09T07:18:49.905Z,-33.95
2023-02-09T07:19:49.912Z,-14.06
2023-02-09T07:20:49.915Z,4.75
2023-02-09T07:21:49.915Z,22.93
2023-02-09T07:22:49.917Z,42.03
2023-02-09T07:23:49.912Z,60.74
2023-02-09T07:24:49.916Z,80.06
2023-02-09T07:25:49.919Z,96.9
2023-02-09T07:26:49.916Z,115.7
2023-02-09T07:27:49.925Z,133.47
2023-02-09T07:28:49.926Z,150.38
2023-02-09T07:29:49.957Z,169.4
2023-02-09T07:30:50.081Z,185.82
2023-02-09T07:31:50.150Z,202.48
2023-02-09T07:32:49.926Z,220.23
2023-02-09T07:33:49.949Z,236.48
2023-02-09T07:34:49.928Z,253
2023-02-09T07:35:49.952Z,269.61
2023-02-09T07:36:49.939Z,284.61
2023-02-09T07:37:49.950Z,298.93
2023-02-09T07:38:49.936Z,311.54
2023-02-09T07:39:50.957Z,323.47
2023-02-09T07:40:49.941Z,334.61
2023-02-09T07:41:49.948Z,344.1
2023-02-09T07:42:49.938Z,356.45
2023-02-09T07:43:49.953Z,367.64
2023-02-09T07:44:49.950Z,377.07
2023-02-09T07:45:49.966Z,387.86
2023-02-09T07:46:50.040Z,397.67
2023-02-09T07:47:50.013Z,406.76
2023-02-09T07:48:49.945Z,415.61
2023-02-09T07:49:49.956Z,423.82
2023-02-09T07:50:49.985Z,432.47
2023-02-09T07:51:49.961Z,441.86
2023-02-09T07:52:49.977Z,450.83
2023-02-09T07:53:49.955Z,460.69
2023-02-09T07:54:50.425Z,470.25
2023-02-09T07:55:49.984Z,479.95
2023-02-09T07:56:49.964Z,488.85
2023-02-09T07:57:49.967Z,497.95
2023-02-09T07:58:49.961Z,506.72
2023-02-09T07:59:49.966Z,515.05
2023-02-09T08:00:50.001Z,522.25
2023-02-09T08:01:50.035Z,530.07
2023-02-09T08:02:49.975Z,537.88
2023-02-09T08:03:50.007Z,545.45
2023-02-09T08:04:50.000Z,552.2
2023-02-09T08:05:50.110Z,558.58
2023-02-09T08:06:49.979Z,566.13
2023-02-09T08:07:50.009Z,572.97
2023-02-09T08:08:49.981Z,578.23
2023-02-09T08:09:49.979Z,582.96
2023-02-09T08:10:50.026Z,587.27
2023-02-09T08:11:50.056Z,591.39
2023-02-09T08:12:49.992Z,595.65
2023-02-09T08:13:49.990Z,599.56
2023-02-09T08:14:49.987Z,603.76
2023-02-09T08:15:50.761Z,609.05
2023-02-09T08:16:50.040Z,614.2
2023-02-09T08:17:49.993Z,619.08
2023-02-09T08:18:50.001Z,624.2
2023-02-09T08:19:50.019Z,628.67
2023-02-09T08:20:49.999Z,632.9
2023-02-09T08:21:50.005Z,636.66
2023-02-09T08:22:50.008Z,639.23
2023-02-09T08:23:50.002Z,642.34
2023-02-09T08:24:50.008Z,643.31
2023-02-09T08:25:50.016Z,646.55
2023-02-09T08:26:52.786Z,649.36
2023-02-09T08:27:50.027Z,651.82
2023-02-09T08:28:50.089Z,654.67
2023-02-09T08:29:50.012Z,659.52
2023-02-09T08:30:50.073Z,662.99
2023-02-09T08:31:50.096Z,666.79
2023-02-09T08:32:50.024Z,670.29
2023-02-09T08:33:50.054Z,673.74
2023-02-09T08:34:50.040Z,676.41
2023-02-09T08:35:50.054Z,678.72
2023-02-09T08:36:50.030Z,680.86
2023-02-09T08:37:52.817Z,681.87
2023-02-09T08:38:50.036Z,682.76
2023-02-09T08:39:50.045Z,686.07
2023-02-09T08:40:50.059Z,687.96
2023-02-09T08:41:50.030Z,689.84
2023-02-09T08:42:50.064Z,691.14
2023-02-09T08:43:50.081Z,692.34
2023-02-09T08:44:50.055Z,693.56
2023-02-09T08:45:50.716Z,694.32
2023-02-09T08:46:50.166Z,694.97
2023-02-09T08:47:50.042Z,696.12
2023-02-09T08:48:53.169Z,697.69
2023-02-09T08:49:50.045Z,696.98
2023-02-09T08:50:50.049Z,697.57
2023-02-09T08:51:50.093Z,697.19
2023-02-09T08:52:50.050Z,698.73
2023-02-09T08:53:51.822Z,699.55
2023-02-09T08:54:50.064Z,700.04
2023-02-09T08:55:50.061Z,700.03
2023-02-09T08:56:50.067Z,699.81
2023-02-09T08:57:50.060Z,700.39
2023-02-09T08:58:50.073Z,700.79
2023-02-09T08:59:52.834Z,698.19
2023-02-09T09:00:50.137Z,695.67
2023-02-09T09:01:50.069Z,693.12
2023-02-09T09:02:50.074Z,689.83
2023-02-09T09:03:50.139Z,685.82
2023-02-09T09:04:50.076Z,681.08
2023-02-09T09:05:50.141Z,676.3
2023-02-09T09:06:50.083Z,667.74
2023-02-09T09:07:50.109Z,657.22
2023-02-09T09:08:50.086Z,644.57
2023-02-09T09:09:50.085Z,634.14
2023-02-09T09:10:50.082Z,624.58
2023-02-09T09:11:50.095Z,613.2
2023-02-09T09:12:50.087Z,601.38
2023-02-09T09:13:50.091Z,591.56
2023-02-09T09:14:50.093Z,583.28
2023-02-09T09:15:50.097Z,576.31
2023-02-09T09:16:50.158Z,570.13
2023-02-09T09:17:50.094Z,564.13
2023-02-09T09:18:50.101Z,559.94
2023-02-09T09:19:50.095Z,557.28
2023-02-09T09:20:50.106Z,554.39
2023-02-09T09:21:50.100Z,553.28
2023-02-09T09:22:50.107Z,552.83
2023-02-09T09:23:50.128Z,551.84
2023-02-09T09:24:50.126Z,552.77
2023-02-09T09:25:50.105Z,555.1
2023-02-09T09:26:50.132Z,556.44
2023-02-09T09:27:50.121Z,558.48
2023-02-09T09:28:50.164Z,560.96
2023-02-09T09:29:50.115Z,563.23
2023-02-09T09:30:50.204Z,567.75
2023-02-09T09:31:50.166Z,570.3
2023-02-09T09:32:52.709Z,572.41
2023-02-09T09:33:50.117Z,575.46
2023-02-09T09:34:50.128Z,578.45
2023-02-09T09:35:50.124Z,578.83
2023-02-09T09:36:50.145Z,582.12
2023-02-09T09:37:50.187Z,585.84
2023-02-09T09:38:50.129Z,588.26
2023-02-09T09:39:50.152Z,591.66
2023-02-09T09:40:50.136Z,596.32
2023-02-09T09:41:50.156Z,601.04
2023-02-09T09:42:50.133Z,606.92
2023-02-09T09:43:50.203Z,611.96
2023-02-09T09:44:50.142Z,617.01
2023-02-09T09:45:50.330Z,622.5
2023-02-09T09:46:50.160Z,627.48
2023-02-09T09:47:50.154Z,633.23
2023-02-09T09:48:50.151Z,637.96
2023-02-09T09:49:50.157Z,643.37
2023-02-09T09:50:50.152Z,647.61
2023-02-09T09:51:50.177Z,650.13
2023-02-09T09:52:50.148Z,650.7
2023-02-09T09:53:50.167Z,649.17
2023-02-09T09:54:50.154Z,645.22
2023-02-09T09:55:50.541Z,638.19
2023-02-09T09:56:50.183Z,629.43
2023-02-09T09:57:50.162Z,618.6
2023-02-09T09:58:50.162Z,609.12
2023-02-09T09:59:50.198Z,599.62
2023-02-09T10:00:50.267Z,589.88
2023-02-09T10:01:50.217Z,583.53
2023-02-09T10:02:50.162Z,578.2
2023-02-09T10:03:50.163Z,577.2
2023-02-09T10:04:50.214Z,578.57
2023-02-09T10:05:50.170Z,583.07
2023-02-09T10:06:50.202Z,588.57
2023-02-09T10:07:50.180Z,595.99
2023-02-09T10:08:50.181Z,603.44
2023-02-09T10:09:50.183Z,608.12
2023-02-09T10:10:50.183Z,612.09
2023-02-09T10:11:50.238Z,617.57
2023-02-09T10:12:50.182Z,622.57
2023-02-09T10:13:50.201Z,629.11
2023-02-09T10:14:50.223Z,634.34
2023-02-09T10:15:50.186Z,640.1
2023-02-09T10:16:50.266Z,645.27
2023-02-09T10:17:50.188Z,650.73
2023-02-09T10:18:50.195Z,656.22
2023-02-09T10:19:50.196Z,662.34
2023-02-09T10:20:50.199Z,667.04
2023-02-09T10:21:50.219Z,671.58
2023-02-09T10:22:50.193Z,676.01
2023-02-09T10:23:50.204Z,680.69
2023-02-09T10:24:50.202Z,685.32
2023-02-09T10:25:50.200Z,688.75
2023-02-09T10:26:50.227Z,692.52
2023-02-09T10:27:50.235Z,696.12
2023-02-09T10:28:50.208Z,699.48
2023-02-09T10:29:50.213Z,702.33
2023-02-09T10:30:50.343Z,705.01
2023-02-09T10:31:50.401Z,707.69
2023-02-09T10:32:50.229Z,711.4
2023-02-09T10:33:50.209Z,715.76
2023-02-09T10:34:50.208Z,720.01
2023-02-09T10:35:50.217Z,725.32
2023-02-09T10:36:50.252Z,728.45
2023-02-09T10:37:50.217Z,730.63
2023-02-09T10:38:50.222Z,733.13
2023-02-09T10:39:50.215Z,734.98
2023-02-09T10:40:50.229Z,735.97
2023-02-09T10:41:50.240Z,737.69
2023-02-09T10:42:53.355Z,739.29
2023-02-09T10:43:50.221Z,741.72
2023-02-09T10:44:50.228Z,744.44
2023-02-09T10:45:50.251Z,749.08
2023-02-09T10:46:50.255Z,753.84
2023-02-09T10:47:50.245Z,758.67
2023-02-09T10:48:50.238Z,762.24
2023-02-09T10:49:51.872Z,764.87
2023-02-09T10:50:50.254Z,767.58
2023-02-09T10:51:51.104Z,769.84
2023-02-09T10:52:50.244Z,770.25
2023-02-09T10:53:53.105Z,771.24
2023-02-09T10:54:50.276Z,772.06
2023-02-09T10:55:50.242Z,773.09
2023-02-09T10:56:50.283Z,774.1
2023-02-09T10:57:50.243Z,774.03
2023-02-09T10:58:50.264Z,772.21
2023-02-09T10:59:50.246Z,771.71
2023-02-09T11:00:50.251Z,769.45
2023-02-09T11:01:50.322Z,767.41
2023-02-09T11:02:50.254Z,766.24
2023-02-09T11:03:50.253Z,766.79
2023-02-09T11:04:53.059Z,768.86
2023-02-09T11:05:50.262Z,770.68
2023-02-09T11:06:50.282Z,772.85
2023-02-09T11:07:50.262Z,775.22
2023-02-09T11:08:50.267Z,776.24
2023-02-09T11:09:50.272Z,777.94
2023-02-09T11:10:50.275Z,780.38
2023-02-09T11:11:50.292Z,782.3
2023-02-09T11:12:50.271Z,784.2
2023-02-09T11:13:50.270Z,785.11
2023-02-09T11:14:50.300Z,786.81
2023-02-09T11:15:53.076Z,786.5
2023-02-09T11:16:50.301Z,786.78
2023-02-09T11:17:50.279Z,786.15
2023-02-09T11:18:50.279Z,786.39
2023-02-09T11:19:50.282Z,787.52
2023-02-09T11:20:50.296Z,788.2
2023-02-09T11:21:50.313Z,788.18
2023-02-09T11:22:50.280Z,788.69
2023-02-09T11:23:50.286Z,788.31
2023-02-09T11:24:50.291Z,787.7
2023-02-09T11:25:50.300Z,787.04
2023-02-09T11:26:53.566Z,786.2
2023-02-09T11:27:50.297Z,786.62
2023-02-09T11:28:50.297Z,783.85
2023-02-09T11:29:50.288Z,780.51
2023-02-09T11:30:50.607Z,774.56
2023-02-09T11:31:50.356Z,768.68
2023-02-09T11:32:50.302Z,761.81
2023-02-09T11:33:50.301Z,757.53
2023-02-09T11:34:50.295Z,754.12
2023-02-09T11:35:50.306Z,752.28
2023-02-09T11:36:50.304Z,750.34
2023-02-09T11:37:50.313Z,747.66
2023-02-09T11:38:50.309Z,743.59
2023-02-09T11:39:50.306Z,740.36
2023-02-09T11:40:50.303Z,738.73
2023-02-09T11:41:50.313Z,736.15
2023-02-09T11:42:50.314Z,733.33
2023-02-09T11:43:50.310Z,731.82
2023-02-09T11:44:50.312Z,731.55
2023-02-09T11:45:50.315Z,730.2
2023-02-09T11:46:50.362Z,730.79
2023-02-09T11:47:50.311Z,730.47
2023-02-09T11:48:50.326Z,729.64
2023-02-09T11:49:50.324Z,728.61
2023-02-09T11:50:50.322Z,728.9
2023-02-09T11:51:50.323Z,729.67
2023-02-09T11:52:50.325Z,730.61
2023-02-09T11:53:50.321Z,730.73
2023-02-09T11:54:50.331Z,730.37
2023-02-09T11:55:50.331Z,731.32
2023-02-09T11:56:50.343Z,733.31
2023-02-09T11:57:50.332Z,734.42
2023-02-09T11:58:50.334Z,737.08
2023-02-09T11:59:50.333Z,737.73
2023-02-09T12:00:56.119Z,737.19
2023-02-09T12:01:50.336Z,735.86
2023-02-09T12:02:50.396Z,731.73
2023-02-09T12:03:50.330Z,727.64
2023-02-09T12:04:50.340Z,721.72
2023-02-09T12:05:50.344Z,716.91
2023-02-09T12:06:50.416Z,714.94
2023-02-09T12:07:50.340Z,710.07
2023-02-09T12:08:50.338Z,705.03
2023-02-09T12:09:50.345Z,699.97
2023-02-09T12:10:50.339Z,695.37
2023-02-09T12:11:50.353Z,691.79
2023-02-09T12:12:50.349Z,687.95
2023-02-09T12:13:50.505Z,685.62
2023-02-09T12:14:50.355Z,682.49
2023-02-09T12:15:50.383Z,680.09
2023-02-09T12:16:50.355Z,677.67
2023-02-09T12:17:50.357Z,675.29
2023-02-09T12:18:50.378Z,673.34
2023-02-09T12:19:50.596Z,670.92
2023-02-09T12:20:50.357Z,668.79
2023-02-09T12:21:50.360Z,666.8
2023-02-09T12:22:50.371Z,665.21
2023-02-09T12:23:50.363Z,663.18
2023-02-09T12:24:50.365Z,661.56
2023-02-09T12:25:51.485Z,660.75